createdAt,value
2022-12-18T00:01:00.644Z,77.40
2022-12-18T00:04:05.304Z,77.78
2022-12-18T00:07:08.084Z,78.31
2022-12-18T00:10:11.052Z,77.45
2022-12-18T00:13:17.956Z,77.45
2022-12-18T00:16:24.380Z,77.06
2022-12-18T00:19:26.986Z,77.21
2022-12-18T00:22:29.584Z,77.30
2022-12-18T00:25:34.753Z,76.86
2022-12-18T00:28:37.465Z,77.17
2022-12-18T00:31:41.811Z,77.39
2022-12-18T00:34:44.672Z,77.58
2022-12-18T00:37:47.258Z,75.75
2022-12-18T00:40:49.865Z,76.23
2022-12-18T00:43:51.459Z,76.32
2022-12-18T00:46:55.418Z,76.02
2022-12-18T00:49:58.005Z,76.35
2022-12-18T00:53:00.567Z,76.01
2022-12-18T00:56:03.165Z,75.28
2022-12-18T00:59:06.532Z,75.56
2022-12-18T01:02:10.587Z,75.56
2022-12-18T01:05:14.433Z,76.20
2022-12-18T01:08:16.992Z,75.93
2022-12-18T01:11:21.951Z,75.22
2022-12-18T01:14:24.501Z,76.34
2022-12-18T01:17:28.435Z,76.00
2022-12-18T01:20:31.053Z,75.37
2022-12-18T01:23:33.653Z,74.82
2022-12-18T01:26:36.218Z,75.29
2022-12-18T01:29:38.796Z,76.00
2022-12-18T01:32:43.098Z,75.91
2022-12-18T01:35:45.665Z,76.20
2022-12-18T01:38:49.145Z,75.79
2022-12-18T01:42:04.226Z,75.19
2022-12-18T01:45:23.343Z,75.81
2022-12-18T01:48:27.268Z,75.55
2022-12-18T01:51:32.430Z,76.13
2022-12-18T01:54:35.259Z,75.23
2022-12-18T01:57:39.000Z,77.73
2022-12-18T02:00:41.955Z,75.63
2022-12-18T02:03:47.185Z,76.06
2022-12-18T02:06:53.135Z,75.94
2022-12-18T02:10:01.001Z,76.39
2022-12-18T02:13:14.843Z,76.23
2022-12-18T02:16:23.541Z,76.40
2022-12-18T02:19:55.846Z,75.63
2022-12-18T02:23:08.682Z,76.70
2022-12-18T02:26:20.099Z,76.86
2022-12-18T02:29:28.305Z,76.13
2022-12-18T02:32:37.593Z,75.78
2022-12-18T02:35:43.029Z,75.84
2022-12-18T02:38:47.819Z,75.25
2022-12-18T02:41:53.432Z,75.94
2022-12-18T02:44:56.017Z,75.40
2022-12-18T02:47:58.636Z,75.46
2022-12-18T02:51:06.901Z,75.20
2022-12-18T02:54:19.861Z,76.03
2022-12-18T02:57:32.697Z,75.29
2022-12-18T03:00:39.865Z,75.03
2022-12-18T03:03:47.753Z,75.54
2022-12-18T03:06:53.857Z,74.76
2022-12-18T03:09:58.385Z,76.08
2022-12-18T03:13:06.643Z,74.21
2022-12-18T03:16:12.996Z,74.11
2022-12-18T03:19:19.056Z,74.50
2022-12-18T03:22:23.334Z,75.24
2022-12-18T03:25:28.725Z,74.91
2022-12-18T03:28:37.481Z,74.92
2022-12-18T03:31:43.649Z,74.03
2022-12-18T03:34:49.983Z,74.79
2022-12-18T03:37:52.652Z,73.73
2022-12-18T03:41:01.376Z,75.23
2022-12-18T03:44:13.379Z,74.65
2022-12-18T03:47:21.478Z,75.15
2022-12-18T03:50:31.864Z,75.38
2022-12-18T03:53:41.105Z,75.15
2022-12-18T03:56:47.766Z,74.98
2022-12-18T03:59:54.641Z,74.72
2022-12-18T04:02:59.357Z,74.49
2022-12-18T04:06:03.645Z,73.84
2022-12-18T04:09:08.008Z,74.96
2022-12-18T04:12:11.077Z,75.50
2022-12-18T04:15:15.863Z,75.55
2022-12-18T04:18:18.432Z,75.35
2022-12-18T04:21:21.609Z,75.34
2022-12-18T04:24:24.346Z,75.06
2022-12-18T04:27:26.912Z,74.63
2022-12-18T04:30:30.834Z,75.69
2022-12-18T04:33:33.431Z,76.17
2022-12-18T04:36:36.013Z,75.74
2022-12-18T04:39:38.689Z,75.50
2022-12-18T04:42:41.431Z,76.38
2022-12-18T04:45:45.399Z,75.77
2022-12-18T04:48:48.681Z,76.14
2022-12-18T04:51:51.249Z,74.26
2022-12-18T04:54:53.865Z,75.55
2022-12-18T04:57:56.729Z,74.84
2022-12-18T05:01:00.689Z,75.35
2022-12-18T05:04:03.504Z,76.32
2022-12-18T05:07:06.223Z,75.61
2022-12-18T05:10:09.549Z,75.34
2022-12-18T05:13:13.042Z,75.52
2022-12-18T05:16:17.277Z,75.16
2022-12-18T05:19:19.945Z,74.01
2022-12-18T05:22:22.522Z,74.43
2022-12-18T05:25:25.572Z,73.59
2022-12-18T05:28:30.298Z,73.83
2022-12-18T05:31:39.622Z,75.00
2022-12-18T05:34:42.525Z,74.19
2022-12-18T05:37:45.116Z,73.84
2022-12-18T05:40:47.698Z,74.32
2022-12-18T05:43:50.311Z,73.32
2022-12-18T05:46:54.347Z,73.65
2022-12-18T05:49:57.499Z,74.43
2022-12-18T05:53:00.096Z,74.28
2022-12-18T05:56:03.581Z,74.56
2022-12-18T05:59:06.164Z,75.03
2022-12-18T06:02:10.218Z,74.88
2022-12-18T06:05:12.906Z,74.34
2022-12-18T06:08:15.899Z,74.40
2022-12-18T06:11:20.425Z,74.23
2022-12-18T06:14:23.002Z,74.84
2022-12-18T06:17:29.824Z,74.25
2022-12-18T06:20:33.789Z,74.60
2022-12-18T06:23:37.291Z,74.25
2022-12-18T06:26:40.837Z,74.46
2022-12-18T06:29:43.467Z,74.39
2022-12-18T06:32:50.473Z,73.89
2022-12-18T06:36:00.898Z,74.36
2022-12-18T06:39:04.611Z,74.04
2022-12-18T06:42:07.245Z,73.19
2022-12-18T06:45:10.783Z,73.99
2022-12-18T06:48:14.735Z,74.57
2022-12-18T06:51:19.441Z,74.00
2022-12-18T06:54:22.250Z,73.72
2022-12-18T06:57:25.193Z,73.40
2022-12-18T07:00:27.812Z,73.67
2022-12-18T07:03:31.860Z,73.87
2022-12-18T07:06:34.469Z,73.49
2022-12-18T07:09:37.182Z,73.31
2022-12-18T07:12:39.765Z,74.40
2022-12-18T07:15:42.334Z,74.30
2022-12-18T07:18:47.159Z,73.53
2022-12-18T07:21:49.714Z,74.36
2022-12-18T07:24:52.290Z,74.40
2022-12-18T07:27:54.887Z,74.05
2022-12-18T07:30:57.728Z,73.76
2022-12-18T07:34:01.705Z,74.09
2022-12-18T07:37:04.293Z,74.55
2022-12-18T07:40:08.144Z,73.99
2022-12-18T07:43:10.706Z,74.40
2022-12-18T07:46:16.526Z,75.33
2022-12-18T07:49:20.593Z,75.51
2022-12-18T07:52:26.152Z,74.41
2022-12-18T07:55:35.329Z,74.79
2022-12-18T07:58:45.218Z,74.68
2022-12-18T08:01:48.289Z,74.58
2022-12-18T08:04:52.311Z,73.39
2022-12-18T08:07:55.332Z,74.40
2022-12-18T08:10:59.043Z,74.57
2022-12-18T08:14:01.654Z,73.28
2022-12-18T08:17:04.319Z,73.90
2022-12-18T08:20:09.676Z,73.82
2022-12-18T08:23:12.405Z,73.49
2022-12-18T08:26:15.756Z,73.45
2022-12-18T08:29:21.598Z,73.16
2022-12-18T08:32:24.580Z,73.83
2022-12-18T08:35:34.253Z,74.13
2022-12-18T08:38:39.366Z,72.79
2022-12-18T08:41:41.969Z,74.33
2022-12-18T08:44:43.602Z,73.26
2022-12-18T08:47:46.200Z,73.16
2022-12-18T08:50:57.064Z,73.34
2022-12-18T08:53:59.851Z,73.72
2022-12-18T08:57:03.051Z,73.66
2022-12-18T09:00:06.488Z,72.27
2022-12-18T09:03:13.777Z,72.53
2022-12-18T09:06:18.983Z,72.60
2022-12-18T09:09:21.596Z,73.52
2022-12-18T09:12:24.168Z,72.94
2022-12-18T09:15:27.477Z,72.57
2022-12-18T09:18:30.103Z,71.54
2022-12-18T09:21:37.012Z,71.69
2022-12-18T09:24:40.062Z,71.12
2022-12-18T09:27:42.646Z,72.91
2022-12-18T09:30:47.449Z,72.65
2022-12-18T09:33:50.078Z,71.42
2022-12-18T09:36:54.365Z,71.99
2022-12-18T09:39:56.934Z,72.85
2022-12-18T09:43:05.143Z,71.44
2022-12-18T09:46:17.991Z,71.34
2022-12-18T09:49:24.831Z,71.69
2022-12-18T09:52:34.562Z,71.29
2022-12-18T09:55:40.344Z,72.84
2022-12-18T09:58:49.447Z,72.09
2022-12-18T10:01:52.376Z,72.14
2022-12-18T10:05:06.219Z,70.47
2022-12-18T10:08:15.477Z,71.10
2022-12-18T10:11:30.940Z,71.41
2022-12-18T10:14:43.033Z,70.54
2022-12-18T10:17:51.937Z,70.83
2022-12-18T10:21:00.726Z,71.46
2022-12-18T10:24:16.800Z,71.88
2022-12-18T10:27:24.577Z,71.14
2022-12-18T10:30:28.121Z,71.17
2022-12-18T10:33:33.298Z,69.08
2022-12-18T10:36:35.861Z,69.55
2022-12-18T10:39:39.784Z,69.85
2022-12-18T10:42:44.927Z,69.33
2022-12-18T10:46:01.793Z,70.27
2022-12-18T10:49:04.591Z,69.17
2022-12-18T10:52:14.603Z,70.05
2022-12-18T10:55:19.739Z,68.50
2022-12-18T10:58:28.259Z,66.58
2022-12-18T11:01:47.117Z,66.67
2022-12-18T11:04:52.672Z,65.44
2022-12-18T11:07:55.960Z,63.74
2022-12-18T11:10:59.943Z,63.83
2022-12-18T11:14:05.761Z,60.50
2022-12-18T11:17:25.882Z,59.68
2022-12-18T11:20:34.351Z,60.55
2022-12-18T11:23:38.669Z,61.57
2022-12-18T11:26:44.251Z,63.00
2022-12-18T11:29:47.066Z,64.05
2022-12-18T11:32:51.788Z,66.04
2022-12-18T11:35:57.242Z,65.86
2022-12-18T11:39:04.681Z,65.93
2022-12-18T11:42:14.725Z,68.57
2022-12-18T11:45:29.735Z,68.15
2022-12-18T11:48:38.694Z,68.10
2022-12-18T11:51:50.697Z,68.37
2022-12-18T11:54:54.846Z,68.54
2022-12-18T11:58:08.253Z,67.77
2022-12-18T12:01:20.576Z,68.70
2022-12-18T12:04:43.609Z,67.62
2022-12-18T12:07:54.455Z,69.50
2022-12-18T12:11:08.619Z,67.71
2022-12-18T12:14:47.967Z,70.13
2022-12-18T12:17:56.360Z,70.01
2022-12-18T12:21:06.619Z,68.81
2022-12-18T12:24:27.545Z,70.92
2022-12-18T12:27:42.364Z,71.19
2022-12-18T12:31:00.128Z,70.16
2022-12-18T12:34:15.490Z,70.06
2022-12-18T12:37:27.857Z,71.19
2022-12-18T12:44:00.657Z,70.75
2022-12-18T12:47:15.676Z,69.74
2022-12-18T12:50:22.202Z,69.19
2022-12-18T12:53:29.725Z,68.70
2022-12-18T12:56:42.048Z,68.61
2022-12-18T12:59:54.336Z,69.04
2022-12-18T13:03:05.633Z,69.07
2022-12-18T13:06:19.066Z,66.60
2022-12-18T13:09:22.052Z,67.64
2022-12-18T13:12:41.918Z,69.12
2022-12-18T13:15:47.348Z,70.21
2022-12-18T13:18:57.796Z,68.72
2022-12-18T13:22:00.509Z,67.63
2022-12-18T13:25:04.381Z,69.86
2022-12-18T13:28:10.316Z,68.93
2022-12-18T13:31:13.854Z,69.75
2022-12-18T13:34:29.549Z,70.01
2022-12-18T13:37:54.188Z,68.78
2022-12-18T13:40:59.123Z,69.59
2022-12-18T13:44:14.472Z,69.36
2022-12-18T13:47:29.359Z,68.87
2022-12-18T13:50:36.363Z,70.38
2022-12-18T13:53:44.443Z,69.98
2022-12-18T13:56:49.608Z,71.01
2022-12-18T13:59:53.695Z,71.36
2022-12-18T14:02:57.715Z,70.97
2022-12-18T14:06:09.071Z,71.19
2022-12-18T14:09:20.311Z,72.00
2022-12-18T14:12:44.552Z,71.67
2022-12-18T14:15:50.806Z,71.07
2022-12-18T14:18:56.895Z,72.44
2022-12-18T14:22:16.740Z,73.46
2022-12-18T14:25:21.664Z,73.06
2022-12-18T14:28:24.441Z,74.01
2022-12-18T14:31:29.126Z,74.01
2022-12-18T14:34:31.712Z,73.66
2022-12-18T14:37:35.634Z,74.01
2022-12-18T14:40:38.437Z,75.11
2022-12-18T14:43:44.018Z,74.21
2022-12-18T14:46:48.259Z,72.98
2022-12-18T14:49:50.894Z,74.14
2022-12-18T14:52:55.118Z,75.11
2022-12-18T14:55:57.843Z,74.90
2022-12-18T14:59:02.771Z,75.61
2022-12-18T15:02:13.152Z,74.56
2022-12-18T15:05:21.644Z,74.00
2022-12-18T15:08:37.697Z,74.50
2022-12-18T15:11:48.403Z,73.89
2022-12-18T15:14:51.034Z,73.89
2022-12-18T15:17:59.176Z,73.66
2022-12-18T15:21:10.934Z,74.46
2022-12-18T15:24:21.659Z,74.46
2022-12-18T15:27:27.617Z,74.20
2022-12-18T15:30:30.413Z,74.13
2022-12-18T15:33:35.625Z,75.39
2022-12-18T15:36:38.903Z,76.27
2022-12-18T15:39:42.847Z,75.30
2022-12-18T15:43:03.547Z,75.70
2022-12-18T15:46:08.312Z,75.66
2022-12-18T15:49:10.916Z,75.98
2022-12-18T15:52:26.661Z,75.99
2022-12-18T15:55:47.995Z,76.00
2022-12-18T15:58:50.576Z,76.59
2022-12-18T16:01:54.837Z,76.81
2022-12-18T16:04:59.237Z,77.16
2022-12-18T16:08:01.832Z,76.94
2022-12-18T16:11:05.932Z,77.19
2022-12-18T16:14:17.582Z,76.84
2022-12-18T16:17:20.602Z,77.21
2022-12-18T16:20:24.081Z,76.55
2022-12-18T16:23:27.993Z,76.60
2022-12-18T16:26:33.386Z,76.63
2022-12-18T16:29:35.943Z,76.59
2022-12-18T16:32:38.528Z,77.62
2022-12-18T16:35:41.327Z,77.47
2022-12-18T16:38:45.166Z,76.42
2022-12-18T16:41:49.252Z,76.87
2022-12-18T16:44:52.028Z,76.61
2022-12-18T16:47:54.612Z,76.00
2022-12-18T16:51:02.449Z,77.04
2022-12-18T16:54:09.721Z,76.12
2022-12-18T16:57:17.355Z,76.94
2022-12-18T17:00:20.205Z,76.67
2022-12-18T17:03:22.873Z,77.64
2022-12-18T17:06:27.331Z,77.01
2022-12-18T17:09:29.911Z,77.16
2022-12-18T17:12:33.841Z,76.96
2022-12-18T17:15:36.856Z,75.65
2022-12-18T17:18:39.505Z,75.80
2022-12-18T17:21:42.440Z,76.00
2022-12-18T17:24:45.054Z,76.81
2022-12-18T17:27:48.982Z,76.41
2022-12-18T17:30:51.670Z,75.39
2022-12-18T17:33:54.837Z,75.01
2022-12-18T17:36:57.529Z,74.60
2022-12-18T17:40:00.092Z,76.21
2022-12-18T17:43:04.113Z,76.71
2022-12-18T17:46:07.844Z,77.09
2022-12-18T17:49:12.666Z,75.59
2022-12-18T17:52:15.254Z,75.77
2022-12-18T17:55:17.849Z,75.64
2022-12-18T17:58:21.846Z,77.22
2022-12-18T18:01:26.117Z,77.36
2022-12-18T18:04:28.783Z,76.55
2022-12-18T18:07:31.411Z,78.35
2022-12-18T18:10:38.169Z,77.00
2022-12-18T18:13:59.401Z,77.60
2022-12-18T18:17:04.655Z,76.62
2022-12-18T18:20:08.553Z,76.54
2022-12-18T18:23:11.369Z,76.82
2022-12-18T18:26:13.966Z,77.38
2022-12-18T18:29:21.030Z,76.76
2022-12-18T18:32:23.755Z,77.96
2022-12-18T18:35:52.730Z,77.52
2022-12-18T18:38:49.178Z,77.84
2022-12-18T18:41:52.352Z,76.11
2022-12-18T18:44:56.255Z,76.88
2022-12-18T18:47:59.872Z,77.99
2022-12-18T18:51:04.197Z,77.90
2022-12-18T18:54:07.226Z,78.47
2022-12-18T18:57:20.326Z,78.50
2022-12-18T19:00:24.576Z,78.41
2022-12-18T19:03:28.313Z,79.15
2022-12-18T19:06:31.263Z,80.38
2022-12-18T19:09:36.151Z,80.16
2022-12-18T19:12:56.316Z,78.33
2022-12-18T19:16:06.328Z,77.49
2022-12-18T19:19:09.264Z,78.15
2022-12-18T19:22:11.978Z,78.24
2022-12-18T19:25:14.538Z,77.04
2022-12-18T19:28:22.335Z,77.20
2022-12-18T19:31:31.786Z,78.87
2022-12-18T19:34:37.705Z,77.69
2022-12-18T19:37:40.481Z,79.38
2022-12-18T19:40:43.453Z,78.68
2022-12-18T19:43:46.475Z,78.00
2022-12-18T19:46:52.436Z,78.25
2022-12-18T19:49:55.049Z,76.68
2022-12-18T19:52:57.812Z,77.66
2022-12-18T19:56:05.294Z,78.36
2022-12-18T19:59:07.933Z,78.65
2022-12-18T20:02:14.578Z,77.76
2022-12-18T20:05:17.502Z,77.54
2022-12-18T20:08:20.088Z,77.60
2022-12-18T20:11:22.692Z,77.50
2022-12-18T20:14:25.299Z,78.85
2022-12-18T20:17:29.221Z,77.54
2022-12-18T20:20:32.311Z,78.29
2022-12-18T20:23:35.200Z,77.79
2022-12-18T20:26:40.424Z,79.20
2022-12-18T20:29:43.405Z,77.68
2022-12-18T20:32:47.356Z,77.09
2022-12-18T20:35:50.093Z,77.43
2022-12-18T20:38:57.291Z,78.65
2022-12-18T20:42:03.141Z,79.07
2022-12-18T20:45:06.830Z,78.82
2022-12-18T20:48:11.431Z,78.83
2022-12-18T20:51:16.671Z,78.26
2022-12-18T20:54:22.913Z,78.42
2022-12-18T20:57:25.582Z,77.64
2022-12-18T21:00:28.169Z,78.07
2022-12-18T21:03:32.161Z,79.29
2022-12-18T21:06:34.855Z,79.30
2022-12-18T21:09:38.563Z,80.72
2022-12-18T21:12:58.895Z,80.69
2022-12-18T21:16:04.521Z,79.42
2022-12-18T21:19:10.166Z,78.56
2022-12-18T21:22:12.870Z,78.28
2022-12-18T21:25:15.623Z,77.74
2022-12-18T21:28:18.241Z,78.36
2022-12-18T21:31:20.904Z,78.57
2022-12-18T21:34:26.617Z,77.53
2022-12-18T21:37:29.218Z,77.32
2022-12-18T21:40:31.827Z,77.78
2022-12-18T21:43:52.234Z,75.45
2022-12-18T21:47:00.623Z,75.99
2022-12-18T21:50:10.405Z,76.55
2022-12-18T21:53:12.974Z,76.66
2022-12-18T21:56:15.612Z,77.84
2022-12-18T21:59:20.229Z,77.87
2022-12-18T22:02:23.524Z,78.40
2022-12-18T22:05:27.577Z,78.26
2022-12-18T22:08:30.147Z,77.92
2022-12-18T22:11:32.866Z,77.23
2022-12-18T22:14:35.737Z,78.30
2022-12-18T22:17:38.308Z,78.02
2022-12-18T22:20:42.236Z,77.62
2022-12-18T22:23:44.798Z,76.62
2022-12-18T22:26:48.027Z,76.84
2022-12-18T22:30:05.033Z,77.30
2022-12-18T22:33:07.635Z,76.41
2022-12-18T22:36:11.696Z,77.65
2022-12-18T22:39:16.355Z,76.52
2022-12-18T22:42:19.374Z,77.26
2022-12-18T22:45:25.423Z,77.35
2022-12-18T22:48:28.108Z,75.94
2022-12-18T22:51:32.337Z,75.85
2022-12-18T22:54:35.253Z,75.90
2022-12-18T22:57:37.834Z,75.43
2022-12-18T23:00:41.936Z,76.42
2022-12-18T23:03:44.548Z,76.66
2022-12-18T23:06:48.483Z,76.63
2022-12-18T23:09:51.500Z,76.54
2022-12-18T23:13:02.220Z,75.11
2022-12-18T23:16:09.879Z,76.49
2022-12-18T23:19:12.557Z,77.32
2022-12-18T23:22:16.512Z,77.03
2022-12-18T23:25:19.126Z,76.59
2022-12-18T23:28:21.722Z,75.74
2022-12-18T23:31:26.524Z,76.55
2022-12-18T23:34:29.162Z,76.10
2022-12-18T23:37:57.481Z,75.21
2022-12-18T23:40:56.524Z,77.74
2022-12-18T23:44:00.350Z,77.93
2022-12-18T23:47:07.000Z,77.75
2022-12-18T23:50:09.702Z,78.25
2022-12-18T23:53:14.095Z,76.71
2022-12-18T23:56:16.962Z,77.85
2022-12-18T23:59:24.025Z,77.85
